sensor_id;sensor_type;location;lat;lon;timestamp;P1;durP1;ratioP1;P2;durP2;ratioP2
42094;SDS011;27753;55.724;37.612;2023-07-29T00:01:52;6.47;;;4.25;;
42094;SDS011;27753;55.724;37.612;2023-07-29T00:04:19;7.78;;;3.85;;
42094;SDS011;27753;55.724;37.612;2023-07-29T00:06:45;5.25;;;4.28;;
42094;SDS011;27753;55.724;37.612;2023-07-29T00:09:11;6.70;;;4.03;;
42094;SDS011;27753;55.724;37.612;2023-07-29T00:11:37;4.43;;;3.88;;
42094;SDS011;27753;55.724;37.612;2023-07-29T00:14:03;4.25;;;3.85;;
42094;SDS011;27753;55.724;37.612;2023-07-29T00:16:29;7.40;;;4.32;;
42094;SDS011;27753;55.724;37.612;2023-07-29T00:18:55;6.22;;;4.25;;
42094;SDS011;27753;55.724;37.612;2023-07-29T00:21:21;4.32;;;3.75;;
42094;SDS011;27753;55.724;37.612;2023-07-29T00:23:47;10.32;;;4.05;;
42094;SDS011;27753;55.724;37.612;2023-07-29T00:26:13;9.57;;;4.25;;
42094;SDS011;27753;55.724;37.612;2023-07-29T00:28:39;6.47;;;3.72;;
42094;SDS011;27753;55.724;37.612;2023-07-29T00:31:04;8.15;;;4.18;;
42094;SDS011;27753;55.724;37.612;2023-07-29T00:33:31;8.30;;;3.92;;
42094;SDS011;27753;55.724;37.612;2023-07-29T00:35:56;5.47;;;3.88;;
42094;SDS011;27753;55.724;37.612;2023-07-29T00:38:26;6.43;;;3.58;;
42094;SDS011;27753;55.724;37.612;2023-07-29T00:40:53;6.18;;;3.88;;
42094;SDS011;27753;55.724;37.612;2023-07-29T00:43:19;6.90;;;3.42;;
42094;SDS011;27753;55.724;37.612;2023-07-29T00:45:44;9.13;;;4.20;;
42094;SDS011;27753;55.724;37.612;2023-07-29T00:48:11;6.78;;;3.72;;
42094;SDS011;27753;55.724;37.612;2023-07-29T00:50:37;6.50;;;4.07;;
42094;SDS011;27753;55.724;37.612;2023-07-29T00:53:06;4.95;;;3.60;;
42094;SDS011;27753;55.724;37.612;2023-07-29T00:55:32;4.47;;;3.22;;
42094;SDS011;27753;55.724;37.612;2023-07-29T00:57:59;3.95;;;3.30;;
42094;SDS011;27753;55.724;37.612;2023-07-29T01:00:25;5.18;;;4.05;;
42094;SDS011;27753;55.724;37.612;2023-07-29T01:02:52;6.53;;;4.07;;
42094;SDS011;27753;55.724;37.612;2023-07-29T01:05:19;4.43;;;3.65;;
42094;SDS011;27753;55.724;37.612;2023-07-29T01:13:37;5.57;;;4.07;;
42094;SDS011;27753;55.724;37.612;2023-07-29T01:16:12;5.68;;;3.85;;
42094;SDS011;27753;55.724;37.612;2023-07-29T01:18:42;5.82;;;3.70;;
42094;SDS011;27753;55.724;37.612;2023-07-29T01:21:12;4.78;;;4.22;;
42094;SDS011;27753;55.724;37.612;2023-07-29T01:23:39;6.88;;;4.10;;
42094;SDS011;27753;55.724;37.612;2023-07-29T01:26:05;6.15;;;4.00;;
42094;SDS011;27753;55.724;37.612;2023-07-29T01:28:31;6.30;;;4.20;;
42094;SDS011;27753;55.724;37.612;2023-07-29T01:31:10;5.43;;;4.20;;
42094;SDS011;27753;55.724;37.612;2023-07-29T01:33:48;7.03;;;5.05;;
42094;SDS011;27753;55.724;37.612;2023-07-29T01:36:35;4.85;;;4.28;;
42094;SDS011;27753;55.724;37.612;2023-07-29T01:39:05;6.72;;;4.78;;
42094;SDS011;27753;55.724;37.612;2023-07-29T01:41:33;6.53;;;4.43;;
42094;SDS011;27753;55.724;37.612;2023-07-29T01:44:00;7.32;;;4.10;;
42094;SDS011;27753;55.724;37.612;2023-07-29T01:46:27;6.57;;;4.50;;
42094;SDS011;27753;55.724;37.612;2023-07-29T01:48:53;7.10;;;4.63;;
42094;SDS011;27753;55.724;37.612;2023-07-29T01:51:19;6.25;;;3.85;;
42094;SDS011;27753;55.724;37.612;2023-07-29T01:53:46;7.25;;;4.43;;
42094;SDS011;27753;55.724;37.612;2023-07-29T01:56:12;7.05;;;4.45;;
42094;SDS011;27753;55.724;37.612;2023-07-29T01:58:37;4.88;;;4.30;;
42094;SDS011;27753;55.724;37.612;2023-07-29T02:01:03;8.50;;;5.28;;
42094;SDS011;27753;55.724;37.612;2023-07-29T02:03:29;5.13;;;4.32;;
42094;SDS011;27753;55.724;37.612;2023-07-29T02:05:55;6.65;;;4.30;;
42094;SDS011;27753;55.724;37.612;2023-07-29T02:08:21;5.85;;;4.75;;
42094;SDS011;27753;55.724;37.612;2023-07-29T02:10:47;5.00;;;4.50;;
42094;SDS011;27753;55.724;37.612;2023-07-29T02:13:14;5.53;;;4.73;;
42094;SDS011;27753;55.724;37.612;2023-07-29T02:15:40;7.78;;;4.65;;
42094;SDS011;27753;55.724;37.612;2023-07-29T02:18:06;6.60;;;4.30;;
42094;SDS011;27753;55.724;37.612;2023-07-29T02:20:32;4.57;;;3.97;;
42094;SDS011;27753;55.724;37.612;2023-07-29T02:22:58;6.53;;;4.47;;
42094;SDS011;27753;55.724;37.612;2023-07-29T02:25:24;5.45;;;4.38;;
42094;SDS011;27753;55.724;37.612;2023-07-29T02:27:50;6.63;;;4.43;;
42094;SDS011;27753;55.724;37.612;2023-07-29T02:30:16;6.07;;;4.25;;
42094;SDS011;27753;55.724;37.612;2023-07-29T02:32:41;5.32;;;4.55;;
42094;SDS011;27753;55.724;37.612;2023-07-29T02:35:08;5.07;;;4.57;;
42094;SDS011;27753;55.724;37.612;2023-07-29T02:37:36;4.88;;;4.22;;
42094;SDS011;27753;55.724;37.612;2023-07-29T02:40:04;7.38;;;4.10;;
42094;SDS011;27753;55.724;37.612;2023-07-29T02:42:31;4.90;;;3.70;;
42094;SDS011;27753;55.724;37.612;2023-07-29T02:44:57;5.78;;;3.83;;
42094;SDS011;27753;55.724;37.612;2023-07-29T02:47:23;6.20;;;4.45;;
42094;SDS011;27753;55.724;37.612;2023-07-29T02:49:49;4.90;;;4.30;;
42094;SDS011;27753;55.724;37.612;2023-07-29T02:52:15;5.88;;;4.70;;
42094;SDS011;27753;55.724;37.612;2023-07-29T02:54:41;5.85;;;4.10;;
42094;SDS011;27753;55.724;37.612;2023-07-29T02:57:07;7.05;;;4.93;;
42094;SDS011;27753;55.724;37.612;2023-07-29T02:59:33;4.85;;;4.35;;
42094;SDS011;27753;55.724;37.612;2023-07-29T03:01:59;7.50;;;5.10;;
42094;SDS011;27753;55.724;37.612;2023-07-29T03:04:25;7.85;;;5.22;;
42094;SDS011;27753;55.724;37.612;2023-07-29T03:06:51;5.45;;;4.65;;
42094;SDS011;27753;55.724;37.612;2023-07-29T03:09:17;5.65;;;4.93;;
42094;SDS011;27753;55.724;37.612;2023-07-29T03:11:43;7.90;;;5.55;;
42094;SDS011;27753;55.724;37.612;2023-07-29T03:14:09;5.72;;;5.13;;
42094;SDS011;27753;55.724;37.612;2023-07-29T03:16:35;8.32;;;6.07;;
42094;SDS011;27753;55.724;37.612;2023-07-29T03:19:01;9.65;;;6.20;;
42094;SDS011;27753;55.724;37.612;2023-07-29T03:21:27;7.85;;;5.78;;
42094;SDS011;27753;55.724;37.612;2023-07-29T03:23:53;7.50;;;5.50;;
42094;SDS011;27753;55.724;37.612;2023-07-29T03:26:19;8.00;;;6.00;;
42094;SDS011;27753;55.724;37.612;2023-07-29T03:28:45;9.60;;;6.05;;
42094;SDS011;27753;55.724;37.612;2023-07-29T03:31:11;11.02;;;6.78;;
42094;SDS011;27753;55.724;37.612;2023-07-29T03:33:39;9.75;;;6.60;;
42094;SDS011;27753;55.724;37.612;2023-07-29T03:36:05;9.15;;;5.40;;
42094;SDS011;27753;55.724;37.612;2023-07-29T03:38:31;7.10;;;6.38;;
42094;SDS011;27753;55.724;37.612;2023-07-29T03:40:58;6.47;;;5.75;;
42094;SDS011;27753;55.724;37.612;2023-07-29T03:43:24;8.10;;;6.78;;
42094;SDS011;27753;55.724;37.612;2023-07-29T03:45:49;6.95;;;6.20;;
42094;SDS011;27753;55.724;37.612;2023-07-29T03:48:15;10.32;;;6.70;;
42094;SDS011;27753;55.724;37.612;2023-07-29T03:50:41;9.68;;;6.45;;
42094;SDS011;27753;55.724;37.612;2023-07-29T03:53:07;7.97;;;7.18;;
42094;SDS011;27753;55.724;37.612;2023-07-29T03:58:00;8.88;;;7.47;;
42094;SDS011;27753;55.724;37.612;2023-07-29T04:00:26;9.38;;;6.75;;
42094;SDS011;27753;55.724;37.612;2023-07-29T04:02:53;7.60;;;6.40;;
42094;SDS011;27753;55.724;37.612;2023-07-29T04:05:19;8.65;;;7.22;;
42094;SDS011;27753;55.724;37.612;2023-07-29T04:07:45;8.88;;;7.10;;
42094;SDS011;27753;55.724;37.612;2023-07-29T04:10:11;7.15;;;6.13;;
42094;SDS011;27753;55.724;37.612;2023-07-29T04:12:37;8.23;;;6.25;;
42094;SDS011;27753;55.724;37.612;2023-07-29T04:15:03;9.98;;;6.82;;
42094;SDS011;27753;55.724;37.612;2023-07-29T04:17:29;7.97;;;6.97;;
42094;SDS011;27753;55.724;37.612;2023-07-29T04:19:55;5.90;;;5.30;;
42094;SDS011;27753;55.724;37.612;2023-07-29T04:22:20;9.02;;;5.97;;
42094;SDS011;27753;55.724;37.612;2023-07-29T04:24:46;9.82;;;6.18;;
42094;SDS011;27753;55.724;37.612;2023-07-29T04:27:12;9.88;;;6.85;;
42094;SDS011;27753;55.724;37.612;2023-07-29T04:29:38;10.38;;;6.13;;
42094;SDS011;27753;55.724;37.612;2023-07-29T04:32:05;7.68;;;6.75;;
42094;SDS011;27753;55.724;37.612;2023-07-29T04:34:31;8.15;;;6.35;;
42094;SDS011;27753;55.724;37.612;2023-07-29T04:36:57;8.77;;;6.18;;
42094;SDS011;27753;55.724;37.612;2023-07-29T04:39:23;6.32;;;5.32;;
42094;SDS011;27753;55.724;37.612;2023-07-29T04:41:49;6.88;;;6.05;;
42094;SDS011;27753;55.724;37.612;2023-07-29T04:44:15;6.85;;;5.97;;
42094;SDS011;27753;55.724;37.612;2023-07-29T04:46:41;6.57;;;5.78;;
42094;SDS011;27753;55.724;37.612;2023-07-29T04:49:07;6.10;;;5.47;;
42094;SDS011;27753;55.724;37.612;2023-07-29T04:51:33;8.40;;;6.68;;
42094;SDS011;27753;55.724;37.612;2023-07-29T04:53:58;6.72;;;5.72;;
42094;SDS011;27753;55.724;37.612;2023-07-29T04:56:24;6.20;;;5.60;;
42094;SDS011;27753;55.724;37.612;2023-07-29T04:58:50;5.43;;;4.78;;
42094;SDS011;27753;55.724;37.612;2023-07-29T05:01:16;8.60;;;5.28;;
42094;SDS011;27753;55.724;37.612;2023-07-29T05:03:42;8.15;;;6.00;;
42094;SDS011;27753;55.724;37.612;2023-07-29T05:06:08;7.13;;;5.47;;
42094;SDS011;27753;55.724;37.612;2023-07-29T05:08:34;8.40;;;5.95;;
42094;SDS011;27753;55.724;37.612;2023-07-29T05:11:00;6.13;;;5.40;;
42094;SDS011;27753;55.724;37.612;2023-07-29T05:13:26;7.22;;;5.20;;
42094;SDS011;27753;55.724;37.612;2023-07-29T05:15:52;6.68;;;5.45;;
42094;SDS011;27753;55.724;37.612;2023-07-29T05:18:18;6.13;;;5.13;;
42094;SDS011;27753;55.724;37.612;2023-07-29T05:20:44;9.30;;;5.47;;
42094;SDS011;27753;55.724;37.612;2023-07-29T05:23:10;5.82;;;5.25;;
42094;SDS011;27753;55.724;37.612;2023-07-29T05:25:36;5.47;;;5.00;;
42094;SDS011;27753;55.724;37.612;2023-07-29T05:28:02;5.25;;;3.75;;
42094;SDS011;27753;55.724;37.612;2023-07-29T05:30:29;5.22;;;4.45;;
42094;SDS011;27753;55.724;37.612;2023-07-29T05:32:59;4.53;;;4.10;;
42094;SDS011;27753;55.724;37.612;2023-07-29T05:35:26;7.70;;;4.72;;
42094;SDS011;27753;55.724;37.612;2023-07-29T05:37:52;5.40;;;4.57;;
42094;SDS011;27753;55.724;37.612;2023-07-29T05:40:17;5.60;;;4.22;;
42094;SDS011;27753;55.724;37.612;2023-07-29T05:42:43;7.97;;;4.57;;
42094;SDS011;27753;55.724;37.612;2023-07-29T05:45:10;5.30;;;4.17;;
42094;SDS011;27753;55.724;37.612;2023-07-29T05:47:36;5.40;;;3.50;;
42094;SDS011;27753;55.724;37.612;2023-07-29T05:50:03;5.97;;;4.38;;
42094;SDS011;27753;55.724;37.612;2023-07-29T05:52:32;4.78;;;3.50;;
42094;SDS011;27753;55.724;37.612;2023-07-29T05:54:58;6.07;;;4.22;;
42094;SDS011;27753;55.724;37.612;2023-07-29T05:57:24;5.55;;;4.18;;
42094;SDS011;27753;55.724;37.612;2023-07-29T05:59:50;4.45;;;4.03;;
42094;SDS011;27753;55.724;37.612;2023-07-29T06:02:16;7.05;;;3.90;;
42094;SDS011;27753;55.724;37.612;2023-07-29T06:04:42;4.80;;;4.30;;
42094;SDS011;27753;55.724;37.612;2023-07-29T06:07:08;4.25;;;3.58;;
42094;SDS011;27753;55.724;37.612;2023-07-29T06:09:34;6.68;;;3.42;;
42094;SDS011;27753;55.724;37.612;2023-07-29T06:12:00;6.60;;;3.83;;
42094;SDS011;27753;55.724;37.612;2023-07-29T06:14:26;3.78;;;3.25;;
42094;SDS011;27753;55.724;37.612;2023-07-29T06:16:52;7.88;;;3.65;;
42094;SDS011;27753;55.724;37.612;2023-07-29T06:19:18;7.22;;;4.28;;
42094;SDS011;27753;55.724;37.612;2023-07-29T06:24:11;4.25;;;3.45;;
42094;SDS011;27753;55.724;37.612;2023-07-29T06:26:37;5.50;;;4.28;;
42094;SDS011;27753;55.724;37.612;2023-07-29T06:29:02;5.47;;;4.40;;
42094;SDS011;27753;55.724;37.612;2023-07-29T06:31:28;4.60;;;4.00;;
42094;SDS011;27753;55.724;37.612;2023-07-29T06:33:54;6.85;;;3.95;;
42094;SDS011;27753;55.724;37.612;2023-07-29T06:36:20;5.30;;;4.13;;
42094;SDS011;27753;55.724;37.612;2023-07-29T06:38:46;6.13;;;3.78;;
42094;SDS011;27753;55.724;37.612;2023-07-29T06:41:12;5.80;;;4.70;;
42094;SDS011;27753;55.724;37.612;2023-07-29T06:43:38;5.82;;;4.78;;
42094;SDS011;27753;55.724;37.612;2023-07-29T06:46:04;8.27;;;5.18;;
42094;SDS011;27753;55.724;37.612;2023-07-29T06:48:30;7.43;;;4.45;;
42094;SDS011;27753;55.724;37.612;2023-07-29T06:50:56;6.95;;;4.75;;
42094;SDS011;27753;55.724;37.612;2023-07-29T06:53:26;6.57;;;4.45;;
42094;SDS011;27753;55.724;37.612;2023-07-29T06:55:52;6.67;;;4.70;;
42094;SDS011;27753;55.724;37.612;2023-07-29T06:58:18;7.65;;;4.63;;
42094;SDS011;27753;55.724;37.612;2023-07-29T07:00:44;7.00;;;5.57;;
42094;SDS011;27753;55.724;37.612;2023-07-29T07:03:10;10.93;;;5.97;;
42094;SDS011;27753;55.724;37.612;2023-07-29T07:05:36;5.55;;;4.85;;
42094;SDS011;27753;55.724;37.612;2023-07-29T07:08:02;7.53;;;4.93;;
42094;SDS011;27753;55.724;37.612;2023-07-29T07:10:28;6.95;;;5.68;;
42094;SDS011;27753;55.724;37.612;2023-07-29T07:12:54;6.90;;;5.32;;
42094;SDS011;27753;55.724;37.612;2023-07-29T07:15:20;9.95;;;7.72;;
42094;SDS011;27753;55.724;37.612;2023-07-29T07:17:46;12.07;;;6.18;;
42094;SDS011;27753;55.724;37.612;2023-07-29T07:20:12;8.13;;;6.53;;
42094;SDS011;27753;55.724;37.612;2023-07-29T07:22:38;9.15;;;6.10;;
42094;SDS011;27753;55.724;37.612;2023-07-29T07:25:04;6.78;;;5.97;;
42094;SDS011;27753;55.724;37.612;2023-07-29T07:27:30;9.75;;;6.28;;
42094;SDS011;27753;55.724;37.612;2023-07-29T07:29:56;8.95;;;6.60;;
42094;SDS011;27753;55.724;37.612;2023-07-29T07:32:22;10.73;;;6.57;;
42094;SDS011;27753;55.724;37.612;2023-07-29T07:34:48;7.47;;;6.53;;
42094;SDS011;27753;55.724;37.612;2023-07-29T07:37:14;6.80;;;6.20;;
42094;SDS011;27753;55.724;37.612;2023-07-29T07:39:40;7.25;;;6.05;;
42094;SDS011;27753;55.724;37.612;2023-07-29T07:42:06;7.32;;;6.53;;
42094;SDS011;27753;55.724;37.612;2023-07-29T07:44:32;7.45;;;5.40;;
42094;SDS011;27753;55.724;37.612;2023-07-29T07:46:57;5.97;;;5.38;;
42094;SDS011;27753;55.724;37.612;2023-07-29T07:49:23;6.50;;;5.85;;
42094;SDS011;27753;55.724;37.612;2023-07-29T07:51:49;5.75;;;5.10;;
42094;SDS011;27753;55.724;37.612;2023-07-29T07:54:15;11.32;;;5.70;;
42094;SDS011;27753;55.724;37.612;2023-07-29T07:56:42;5.70;;;5.07;;
42094;SDS011;27753;55.724;37.612;2023-07-29T07:59:08;10.38;;;6.97;;
42094;SDS011;27753;55.724;37.612;2023-07-29T08:01:38;6.80;;;5.30;;
42094;SDS011;27753;55.724;37.612;2023-07-29T08:04:04;10.15;;;5.65;;
42094;SDS011;27753;55.724;37.612;2023-07-29T08:06:30;6.80;;;5.05;;
42094;SDS011;27753;55.724;37.612;2023-07-29T08:08:57;8.27;;;4.90;;
42094;SDS011;27753;55.724;37.612;2023-07-29T08:11:23;7.05;;;5.63;;
42094;SDS011;27753;55.724;37.612;2023-07-29T08:13:49;7.45;;;6.32;;
42094;SDS011;27753;55.724;37.612;2023-07-29T08:16:15;10.43;;;6.57;;
42094;SDS011;27753;55.724;37.612;2023-07-29T08:18:41;7.10;;;6.40;;
42094;SDS011;27753;55.724;37.612;2023-07-29T08:21:07;11.15;;;7.05;;
42094;SDS011;27753;55.724;37.612;2023-07-29T08:23:33;11.68;;;6.85;;
42094;SDS011;27753;55.724;37.612;2023-07-29T08:26:02;8.88;;;7.13;;
42094;SDS011;27753;55.724;37.612;2023-07-29T08:28:36;9.77;;;6.97;;
42094;SDS011;27753;55.724;37.612;2023-07-29T08:31:04;10.43;;;6.38;;
42094;SDS011;27753;55.724;37.612;2023-07-29T08:35:59;7.88;;;7.07;;
42094;SDS011;27753;55.724;37.612;2023-07-29T08:38:25;10.43;;;7.50;;
42094;SDS011;27753;55.724;37.612;2023-07-29T08:43:57;8.30;;;7.32;;
42094;SDS011;27753;55.724;37.612;2023-07-29T08:46:40;6.82;;;6.13;;
42094;SDS011;27753;55.724;37.612;2023-07-29T08:49:06;7.90;;;5.95;;
42094;SDS011;27753;55.724;37.612;2023-07-29T08:51:33;6.30;;;5.27;;
42094;SDS011;27753;55.724;37.612;2023-07-29T08:53:59;8.38;;;5.90;;
42094;SDS011;27753;55.724;37.612;2023-07-29T08:56:26;8.40;;;7.05;;
42094;SDS011;27753;55.724;37.612;2023-07-29T08:58:53;8.77;;;5.83;;
42094;SDS011;27753;55.724;37.612;2023-07-29T09:01:19;8.37;;;6.87;;
42094;SDS011;27753;55.724;37.612;2023-07-29T09:03:45;7.75;;;5.90;;
42094;SDS011;27753;55.724;37.612;2023-07-29T09:06:11;12.27;;;8.45;;
42094;SDS011;27753;55.724;37.612;2023-07-29T09:08:39;7.40;;;6.13;;
42094;SDS011;27753;55.724;37.612;2023-07-29T09:11:05;8.00;;;6.85;;
42094;SDS011;27753;55.724;37.612;2023-07-29T09:13:32;10.07;;;8.35;;
42094;SDS011;27753;55.724;37.612;2023-07-29T09:15:58;10.98;;;7.25;;
42094;SDS011;27753;55.724;37.612;2023-07-29T09:18:25;8.77;;;7.82;;
42094;SDS011;27753;55.724;37.612;2023-07-29T09:20:53;11.88;;;7.50;;
42094;SDS011;27753;55.724;37.612;2023-07-29T09:23:23;7.85;;;7.05;;
42094;SDS011;27753;55.724;37.612;2023-07-29T09:25:50;14.02;;;7.32;;
42094;SDS011;27753;55.724;37.612;2023-07-29T09:28:16;8.38;;;6.63;;
42094;SDS011;27753;55.724;37.612;2023-07-29T09:30:45;10.75;;;7.63;;
42094;SDS011;27753;55.724;37.612;2023-07-29T09:33:12;9.27;;;6.65;;
42094;SDS011;27753;55.724;37.612;2023-07-29T09:35:38;8.80;;;6.55;;
42094;SDS011;27753;55.724;37.612;2023-07-29T09:38:04;8.85;;;6.80;;
42094;SDS011;27753;55.724;37.612;2023-07-29T09:40:38;8.40;;;6.97;;
42094;SDS011;27753;55.724;37.612;2023-07-29T09:43:05;10.07;;;7.03;;
42094;SDS011;27753;55.724;37.612;2023-07-29T09:48:02;8.55;;;7.15;;
42094;SDS011;27753;55.724;37.612;2023-07-29T09:50:30;8.88;;;7.35;;
42094;SDS011;27753;55.724;37.612;2023-07-29T09:52:56;10.50;;;8.50;;
42094;SDS011;27753;55.724;37.612;2023-07-29T09:55:27;8.65;;;7.75;;
42094;SDS011;27753;55.724;37.612;2023-07-29T09:57:57;12.63;;;9.63;;
42094;SDS011;27753;55.724;37.612;2023-07-29T10:00:30;9.73;;;7.68;;
42094;SDS011;27753;55.724;37.612;2023-07-29T10:05:23;9.87;;;7.20;;
42094;SDS011;27753;55.724;37.612;2023-07-29T10:07:51;8.73;;;7.38;;
42094;SDS011;27753;55.724;37.612;2023-07-29T10:10:17;10.52;;;8.57;;
42094;SDS011;27753;55.724;37.612;2023-07-29T10:12:43;9.40;;;8.30;;
42094;SDS011;27753;55.724;37.612;2023-07-29T10:15:09;10.25;;;8.38;;
42094;SDS011;27753;55.724;37.612;2023-07-29T10:17:36;10.20;;;9.05;;
42094;SDS011;27753;55.724;37.612;2023-07-29T10:25:07;7.00;;;5.93;;
42094;SDS011;27753;55.724;37.612;2023-07-29T10:27:44;9.35;;;6.63;;
42094;SDS011;27753;55.724;37.612;2023-07-29T10:30:24;8.75;;;6.53;;
42094;SDS011;27753;55.724;37.612;2023-07-29T10:32:52;7.78;;;5.97;;
42094;SDS011;27753;55.724;37.612;2023-07-29T10:35:19;8.82;;;6.05;;
42094;SDS011;27753;55.724;37.612;2023-07-29T10:37:45;6.57;;;5.72;;
42094;SDS011;27753;55.724;37.612;2023-07-29T10:40:16;7.13;;;6.43;;
42094;SDS011;27753;55.724;37.612;2023-07-29T10:43:02;8.25;;;6.85;;
42094;SDS011;27753;55.724;37.612;2023-07-29T10:45:39;8.95;;;7.10;;
42094;SDS011;27753;55.724;37.612;2023-07-29T10:53:59;9.77;;;8.35;;
42094;SDS011;27753;55.724;37.612;2023-07-29T10:56:30;11.77;;;8.82;;
42094;SDS011;27753;55.724;37.612;2023-07-29T10:59:02;11.13;;;9.13;;
42094;SDS011;27753;55.724;37.612;2023-07-29T11:01:52;11.60;;;8.35;;
42094;SDS011;27753;55.724;37.612;2023-07-29T11:04:27;14.00;;;10.98;;
42094;SDS011;27753;55.724;37.612;2023-07-29T11:09:41;13.20;;;10.48;;
42094;SDS011;27753;55.724;37.612;2023-07-29T11:20:07;11.30;;;8.48;;
42094;SDS011;27753;55.724;37.612;2023-07-29T11:22:33;9.07;;;6.70;;
42094;SDS011;27753;55.724;37.612;2023-07-29T11:25:00;10.50;;;6.80;;
42094;SDS011;27753;55.724;37.612;2023-07-29T11:27:26;9.15;;;6.13;;
42094;SDS011;27753;55.724;37.612;2023-07-29T11:30:02;8.23;;;7.05;;
42094;SDS011;27753;55.724;37.612;2023-07-29T11:32:34;12.30;;;7.57;;
42094;SDS011;27753;55.724;37.612;2023-07-29T11:35:01;13.25;;;8.00;;
42094;SDS011;27753;55.724;37.612;2023-07-29T11:37:34;12.65;;;8.65;;
42094;SDS011;27753;55.724;37.612;2023-07-29T11:40:02;7.18;;;5.75;;
42094;SDS011;27753;55.724;37.612;2023-07-29T11:42:28;8.48;;;6.43;;
42094;SDS011;27753;55.724;37.612;2023-07-29T11:44:57;10.00;;;6.75;;
42094;SDS011;27753;55.724;37.612;2023-07-29T11:47:24;8.00;;;6.82;;
42094;SDS011;27753;55.724;37.612;2023-07-29T11:49:50;10.13;;;7.47;;
42094;SDS011;27753;55.724;37.612;2023-07-29T11:52:16;11.27;;;7.72;;
42094;SDS011;27753;55.724;37.612;2023-07-29T11:54:48;12.60;;;8.63;;
42094;SDS011;27753;55.724;37.612;2023-07-29T11:57:16;8.80;;;7.85;;
42094;SDS011;27753;55.724;37.612;2023-07-29T11:59:43;8.82;;;7.68;;
42094;SDS011;27753;55.724;37.612;2023-07-29T12:02:13;10.38;;;8.27;;
42094;SDS011;27753;55.724;37.612;2023-07-29T12:04:42;8.68;;;7.20;;
42094;SDS011;27753;55.724;37.612;2023-07-29T12:07:09;8.25;;;6.82;;
42094;SDS011;27753;55.724;37.612;2023-07-29T12:09:36;7.88;;;5.95;;
42094;SDS011;27753;55.724;37.612;2023-07-29T12:12:05;8.60;;;7.22;;
42094;SDS011;27753;55.724;37.612;2023-07-29T12:14:34;9.02;;;6.10;;
42094;SDS011;27753;55.724;37.612;2023-07-29T12:17:01;9.53;;;6.43;;
42094;SDS011;27753;55.724;37.612;2023-07-29T12:19:32;11.40;;;7.13;;
42094;SDS011;27753;55.724;37.612;2023-07-29T12:22:00;7.47;;;6.68;;
42094;SDS011;27753;55.724;37.612;2023-07-29T12:24:30;8.10;;;6.78;;
42094;SDS011;27753;55.724;37.612;2023-07-29T12:26:57;11.07;;;6.70;;
42094;SDS011;27753;55.724;37.612;2023-07-29T12:29:25;10.75;;;6.68;;
42094;SDS011;27753;55.724;37.612;2023-07-29T12:31:58;10.48;;;8.43;;
42094;SDS011;27753;55.724;37.612;2023-07-29T12:34:28;8.90;;;6.50;;
42094;SDS011;27753;55.724;37.612;2023-07-29T12:36:56;11.43;;;6.55;;
42094;SDS011;27753;55.724;37.612;2023-07-29T12:41:49;12.18;;;7.45;;
42094;SDS011;27753;55.724;37.612;2023-07-29T12:44:16;7.97;;;6.95;;
42094;SDS011;27753;55.724;37.612;2023-07-29T12:46:43;8.70;;;7.63;;
42094;SDS011;27753;55.724;37.612;2023-07-29T12:49:09;9.70;;;5.55;;
42094;SDS011;27753;55.724;37.612;2023-07-29T12:51:37;7.75;;;6.95;;
42094;SDS011;27753;55.724;37.612;2023-07-29T12:54:03;9.70;;;6.30;;
42094;SDS011;27753;55.724;37.612;2023-07-29T12:56:33;7.78;;;6.60;;
42094;SDS011;27753;55.724;37.612;2023-07-29T12:59:00;8.63;;;6.43;;
42094;SDS011;27753;55.724;37.612;2023-07-29T13:01:28;10.35;;;6.70;;
42094;SDS011;27753;55.724;37.612;2023-07-29T13:03:54;12.15;;;7.30;;
42094;SDS011;27753;55.724;37.612;2023-07-29T13:06:21;7.68;;;6.15;;
42094;SDS011;27753;55.724;37.612;2023-07-29T13:08:50;8.32;;;6.40;;
42094;SDS011;27753;55.724;37.612;2023-07-29T13:11:16;8.20;;;6.03;;
42094;SDS011;27753;55.724;37.612;2023-07-29T13:13:42;9.60;;;7.20;;
42094;SDS011;27753;55.724;37.612;2023-07-29T13:16:09;8.30;;;6.20;;
42094;SDS011;27753;55.724;37.612;2023-07-29T13:18:34;11.93;;;6.28;;
42094;SDS011;27753;55.724;37.612;2023-07-29T13:21:01;8.93;;;5.70;;
42094;SDS011;27753;55.724;37.612;2023-07-29T13:23:26;7.55;;;4.75;;
42094;SDS011;27753;55.724;37.612;2023-07-29T13:25:54;7.32;;;4.43;;
42094;SDS011;27753;55.724;37.612;2023-07-29T13:28:21;8.00;;;5.30;;
42094;SDS011;27753;55.724;37.612;2023-07-29T13:30:47;9.30;;;5.13;;
42094;SDS011;27753;55.724;37.612;2023-07-29T13:33:13;6.40;;;4.53;;
42094;SDS011;27753;55.724;37.612;2023-07-29T13:35:39;10.57;;;5.68;;
42094;SDS011;27753;55.724;37.612;2023-07-29T13:38:05;7.10;;;4.38;;
42094;SDS011;27753;55.724;37.612;2023-07-29T13:40:34;7.40;;;4.65;;
42094;SDS011;27753;55.724;37.612;2023-07-29T13:43:00;13.00;;;5.65;;
42094;SDS011;27753;55.724;37.612;2023-07-29T13:45:26;9.05;;;5.68;;
42094;SDS011;27753;55.724;37.612;2023-07-29T13:47:52;10.48;;;5.05;;
42094;SDS011;27753;55.724;37.612;2023-07-29T13:50:18;9.48;;;4.03;;
42094;SDS011;27753;55.724;37.612;2023-07-29T13:52:44;8.02;;;4.68;;
42094;SDS011;27753;55.724;37.612;2023-07-29T13:55:10;6.40;;;3.75;;
42094;SDS011;27753;55.724;37.612;2023-07-29T13:57:36;6.47;;;4.55;;
42094;SDS011;27753;55.724;37.612;2023-07-29T14:00:04;11.93;;;8.02;;
42094;SDS011;27753;55.724;37.612;2023-07-29T14:02:31;5.72;;;4.13;;
42094;SDS011;27753;55.724;37.612;2023-07-29T14:04:57;9.30;;;7.15;;
42094;SDS011;27753;55.724;37.612;2023-07-29T14:07:23;7.82;;;4.30;;
42094;SDS011;27753;55.724;37.612;2023-07-29T14:09:49;7.95;;;4.43;;
42094;SDS011;27753;55.724;37.612;2023-07-29T14:12:16;4.78;;;3.70;;
42094;SDS011;27753;55.724;37.612;2023-07-29T14:14:42;7.03;;;3.90;;
42094;SDS011;27753;55.724;37.612;2023-07-29T14:17:08;7.63;;;4.32;;
42094;SDS011;27753;55.724;37.612;2023-07-29T14:19:35;7.85;;;4.75;;
42094;SDS011;27753;55.724;37.612;2023-07-29T14:22:01;6.13;;;4.53;;
42094;SDS011;27753;55.724;37.612;2023-07-29T14:24:27;6.60;;;4.65;;
42094;SDS011;27753;55.724;37.612;2023-07-29T14:26:53;8.77;;;5.10;;
42094;SDS011;27753;55.724;37.612;2023-07-29T14:29:19;6.05;;;4.20;;
42094;SDS011;27753;55.724;37.612;2023-07-29T14:31:45;6.82;;;4.18;;
42094;SDS011;27753;55.724;37.612;2023-07-29T14:34:11;4.95;;;3.85;;
42094;SDS011;27753;55.724;37.612;2023-07-29T14:36:37;6.57;;;4.53;;
42094;SDS011;27753;55.724;37.612;2023-07-29T14:39:03;9.10;;;4.65;;
42094;SDS011;27753;55.724;37.612;2023-07-29T14:41:29;11.25;;;4.47;;
42094;SDS011;27753;55.724;37.612;2023-07-29T14:43:56;8.13;;;4.40;;
42094;SDS011;27753;55.724;37.612;2023-07-29T14:46:22;7.45;;;3.80;;
42094;SDS011;27753;55.724;37.612;2023-07-29T14:48:48;8.13;;;4.55;;
42094;SDS011;27753;55.724;37.612;2023-07-29T14:51:14;6.88;;;4.22;;
42094;SDS011;27753;55.724;37.612;2023-07-29T14:53:40;8.82;;;5.18;;
42094;SDS011;27753;55.724;37.612;2023-07-29T14:56:06;5.60;;;4.40;;
42094;SDS011;27753;55.724;37.612;2023-07-29T14:58:32;8.35;;;4.60;;
42094;SDS011;27753;55.724;37.612;2023-07-29T15:01:01;4.88;;;4.00;;
42094;SDS011;27753;55.724;37.612;2023-07-29T15:03:27;8.10;;;4.40;;
42094;SDS011;27753;55.724;37.612;2023-07-29T15:05:53;7.97;;;5.28;;
42094;SDS011;27753;55.724;37.612;2023-07-29T15:08:19;6.20;;;4.72;;
42094;SDS011;27753;55.724;37.612;2023-07-29T15:10:48;7.38;;;4.60;;
42094;SDS011;27753;55.724;37.612;2023-07-29T15:13:14;7.85;;;5.18;;
42094;SDS011;27753;55.724;37.612;2023-07-29T15:15:40;8.05;;;5.18;;
42094;SDS011;27753;55.724;37.612;2023-07-29T15:18:07;9.32;;;5.18;;